createdAt,value
2019-04-30T00:00:03.154Z,17.55
2019-04-30T00:02:43.004Z,14.87
2019-04-30T00:05:17.338Z,16.12
2019-04-30T00:07:43.248Z,16.12
2019-04-30T00:10:12.421Z,17.62
2019-04-30T00:12:41.801Z,16.90
2019-04-30T00:15:17.877Z,19.73
2019-04-30T00:17:41.943Z,15.93
2019-04-30T00:20:11.270Z,15.65
2019-04-30T00:22:47.089Z,15.98
2019-04-30T00:25:11.457Z,15.28
2019-04-30T00:27:40.692Z,15.63
2019-04-30T00:30:09.941Z,13.62
2019-04-30T00:32:43.651Z,14.05
2019-04-30T00:35:11.780Z,13.62
2019-04-30T00:37:41.282Z,13.98
2019-04-30T00:40:10.527Z,14.33
2019-04-30T00:42:39.704Z,15.03
2019-04-30T00:45:10.251Z,14.93
2019-04-30T00:47:45.702Z,14.33
2019-04-30T00:50:10.922Z,14.25
2019-04-30T00:52:40.128Z,14.38
2019-04-30T00:55:09.412Z,15.45
2019-04-30T00:57:43.857Z,13.32
2019-04-30T01:00:11.114Z,13.72
2019-04-30T01:02:48.716Z,13.93
2019-04-30T01:05:25.526Z,14.58
2019-04-30T01:07:55.333Z,14.30
2019-04-30T01:10:28.223Z,14.98
2019-04-30T01:12:59.830Z,13.78
2019-04-30T01:15:26.510Z,16.23
2019-04-30T01:17:55.696Z,19.48
2019-04-30T01:20:31.069Z,18.15
2019-04-30T01:22:58.653Z,16.17
2019-04-30T01:25:28.829Z,13.00
2019-04-30T01:27:58.616Z,12.13
2019-04-30T01:30:28.473Z,12.53
2019-04-30T01:32:58.842Z,14.20
2019-04-30T01:35:32.596Z,13.45
2019-04-30T01:38:03.723Z,12.50
2019-04-30T01:40:30.547Z,13.48
2019-04-30T01:42:59.730Z,12.85
2019-04-30T01:45:31.571Z,13.93
2019-04-30T01:48:08.457Z,13.48
2019-04-30T01:50:33.828Z,13.35
2019-04-30T01:53:04.741Z,12.65
2019-04-30T01:55:50.701Z,13.62
2019-04-30T01:58:21.642Z,13.28
2019-04-30T02:00:59.385Z,13.50
2019-04-30T02:03:30.496Z,14.13
2019-04-30T02:05:59.757Z,14.05
2019-04-30T02:08:29.619Z,13.38
2019-04-30T02:10:59.406Z,14.93
2019-04-30T02:13:31.175Z,13.68
2019-04-30T02:15:59.696Z,13.88
2019-04-30T02:18:29.625Z,12.68
2019-04-30T02:20:59.574Z,11.53
2019-04-30T02:23:29.740Z,11.18
2019-04-30T02:25:59.949Z,11.88
2019-04-30T02:28:29.190Z,12.23
2019-04-30T02:31:00.322Z,11.48
2019-04-30T02:33:31.168Z,10.98
2019-04-30T02:36:14.174Z,9.25
2019-04-30T02:38:45.030Z,10.60
2019-04-30T02:41:14.650Z,10.15
2019-04-30T02:43:43.886Z,9.38
2019-04-30T02:46:13.180Z,9.85
2019-04-30T02:48:42.518Z,11.20
2019-04-30T02:51:11.736Z,10.15
2019-04-30T02:53:53.500Z,10.68
2019-04-30T02:56:26.803Z,10.40
2019-04-30T02:58:55.280Z,10.25
2019-04-30T03:01:24.602Z,22.40
2019-04-30T03:03:53.838Z,17.27
2019-04-30T03:06:23.689Z,14.68
2019-04-30T03:08:53.170Z,15.15
2019-04-30T03:11:22.457Z,16.25
2019-04-30T03:13:51.770Z,19.02
2019-04-30T03:16:22.587Z,19.15
2019-04-30T03:18:53.553Z,26.97
2019-04-30T03:21:42.688Z,32.55
2019-04-30T03:24:11.967Z,26.95
2019-04-30T03:26:41.112Z,19.10
2019-04-30T03:29:11.530Z,17.40
2019-04-30T03:31:43.801Z,16.37
2019-04-30T03:34:18.322Z,14.65
2019-04-30T03:36:42.875Z,14.13
2019-04-30T03:39:12.041Z,13.28
2019-04-30T03:41:41.807Z,13.60
2019-04-30T03:44:21.806Z,12.40
2019-04-30T03:46:42.114Z,13.00
2019-04-30T03:49:13.267Z,12.90
2019-04-30T03:51:42.290Z,13.00
2019-04-30T03:54:11.484Z,12.23
2019-04-30T03:56:41.841Z,12.43
2019-04-30T03:59:11.147Z,12.37
2019-04-30T04:01:42.140Z,18.12
2019-04-30T04:04:16.079Z,15.60
2019-04-30T04:07:01.820Z,13.78
2019-04-30T04:09:40.070Z,15.70
2019-04-30T04:12:21.272Z,15.08
2019-04-30T04:14:51.127Z,15.25
2019-04-30T04:17:21.157Z,15.18
2019-04-30T04:19:51.341Z,14.20
2019-04-30T04:22:20.938Z,14.35
2019-04-30T04:24:50.717Z,12.88
2019-04-30T04:27:20.433Z,12.73
2019-04-30T04:29:51.185Z,12.45
2019-04-30T04:32:24.128Z,12.85
2019-04-30T04:34:51.681Z,12.18
2019-04-30T04:37:20.854Z,11.83
2019-04-30T04:39:50.686Z,12.15
2019-04-30T04:42:20.052Z,12.35
2019-04-30T04:44:50.334Z,11.53
2019-04-30T04:47:20.456Z,11.05
2019-04-30T04:49:53.175Z,12.10
2019-04-30T04:52:21.982Z,11.68
2019-04-30T04:54:51.690Z,12.25
2019-04-30T04:57:22.610Z,12.13
2019-04-30T04:59:51.844Z,11.73
2019-04-30T05:02:34.800Z,8.58
2019-04-30T05:05:04.833Z,11.68
2019-04-30T05:07:34.089Z,11.40
2019-04-30T05:10:04.668Z,10.72
2019-04-30T05:12:33.896Z,11.70
2019-04-30T05:15:03.511Z,10.80
2019-04-30T05:17:32.877Z,11.90
2019-04-30T05:20:02.232Z,16.52
2019-04-30T05:22:31.406Z,11.20
2019-04-30T05:25:00.673Z,11.70
2019-04-30T05:27:30.351Z,12.07
2019-04-30T05:29:59.880Z,12.15
2019-04-30T05:32:29.388Z,10.68
2019-04-30T05:34:58.730Z,11.08
2019-04-30T05:37:28.431Z,11.03
2019-04-30T05:39:58.471Z,11.45
2019-04-30T05:42:28.936Z,10.85
2019-04-30T05:44:59.263Z,11.85
2019-04-30T05:47:29.134Z,11.48
2019-04-30T05:49:58.554Z,9.95
2019-04-30T05:52:29.516Z,10.95
2019-04-30T05:55:00.117Z,11.53
2019-04-30T05:57:29.581Z,12.07
2019-04-30T05:59:58.825Z,10.18
2019-04-30T06:02:33.112Z,10.48
2019-04-30T06:04:59.074Z,10.80
2019-04-30T06:07:29.949Z,10.72
2019-04-30T06:10:03.545Z,10.48
2019-04-30T06:12:39.154Z,10.05
2019-04-30T06:15:11.839Z,9.90
2019-04-30T06:17:42.591Z,10.13
2019-04-30T06:20:18.341Z,11.35
2019-04-30T06:22:43.368Z,10.57
2019-04-30T06:25:14.170Z,10.50
2019-04-30T06:27:43.442Z,10.60
2019-04-30T06:30:12.679Z,10.32
2019-04-30T06:32:42.199Z,9.95
2019-04-30T06:35:11.530Z,9.10
2019-04-30T06:37:40.781Z,9.80
2019-04-30T06:40:11.806Z,9.98
2019-04-30T06:42:41.189Z,10.37
2019-04-30T06:45:10.382Z,8.83
2019-04-30T06:47:39.615Z,9.88
2019-04-30T06:50:09.801Z,9.03
2019-04-30T06:52:39.136Z,9.63
2019-04-30T06:55:09.453Z,9.95
2019-04-30T06:57:38.737Z,9.63
2019-04-30T07:00:09.860Z,7.72
2019-04-30T07:02:39.389Z,7.27
2019-04-30T07:05:10.241Z,8.95
2019-04-30T07:07:41.762Z,8.60
2019-04-30T07:10:21.740Z,9.00
2019-04-30T07:12:55.549Z,9.90
2019-04-30T07:15:24.801Z,10.38
2019-04-30T07:17:54.031Z,9.95
2019-04-30T07:20:23.212Z,9.63
2019-04-30T07:23:00.291Z,6.78
2019-04-30T07:25:23.407Z,9.33
2019-04-30T07:27:52.652Z,8.70
2019-04-30T07:30:21.896Z,9.10
2019-04-30T07:32:51.186Z,8.88
2019-04-30T07:35:20.359Z,8.68
2019-04-30T07:37:49.938Z,8.63
2019-04-30T07:40:19.226Z,8.68
2019-04-30T07:42:49.396Z,8.75
2019-04-30T07:45:19.424Z,9.83
2019-04-30T07:47:49.419Z,7.60
2019-04-30T07:50:21.430Z,8.83
2019-04-30T07:53:01.746Z,8.40
2019-04-30T07:55:20.636Z,9.10
2019-04-30T07:57:50.725Z,8.23
2019-04-30T08:00:20.115Z,8.05
2019-04-30T08:03:02.895Z,9.08
2019-04-30T08:05:33.730Z,7.90
2019-04-30T08:08:20.612Z,8.68
2019-04-30T08:10:34.004Z,9.13
2019-04-30T08:13:10.176Z,9.23
2019-04-30T08:15:34.324Z,7.42
2019-04-30T08:18:05.911Z,7.58
2019-04-30T08:20:34.607Z,7.75
2019-04-30T08:23:15.636Z,5.10
2019-04-30T08:25:34.754Z,5.60
2019-04-30T08:28:03.994Z,7.55
2019-04-30T08:30:33.260Z,7.12
2019-04-30T08:33:02.438Z,7.12
2019-04-30T08:35:31.642Z,8.20
2019-04-30T08:38:00.884Z,6.97
2019-04-30T08:40:30.184Z,7.95
2019-04-30T08:42:59.598Z,8.20
2019-04-30T08:45:31.479Z,6.47
2019-04-30T08:47:59.739Z,7.83
2019-04-30T08:50:29.879Z,8.15
2019-04-30T08:53:00.185Z,7.70
2019-04-30T08:55:30.405Z,7.83
2019-04-30T08:58:09.407Z,7.72
2019-04-30T09:00:30.828Z,7.22
2019-04-30T09:03:00.058Z,8.00
2019-04-30T09:05:38.538Z,7.45
2019-04-30T09:08:09.592Z,8.75
2019-04-30T09:10:39.381Z,8.00
2019-04-30T09:13:09.163Z,8.00
2019-04-30T09:15:40.095Z,7.15
2019-04-30T09:18:12.405Z,5.72
2019-04-30T09:20:40.988Z,7.78
2019-04-30T09:23:11.262Z,8.48
2019-04-30T09:25:40.586Z,8.43
2019-04-30T09:28:09.815Z,7.05
2019-04-30T09:30:39.140Z,8.08
2019-04-30T09:33:10.977Z,7.87
2019-04-30T09:35:39.564Z,8.68
2019-04-30T09:38:09.233Z,8.15
2019-04-30T09:40:41.578Z,8.35
2019-04-30T09:43:09.649Z,8.35
2019-04-30T09:45:38.889Z,9.03
2019-04-30T09:48:09.421Z,7.97
2019-04-30T09:50:39.323Z,4.00
2019-04-30T09:53:10.043Z,8.03
2019-04-30T09:55:40.593Z,5.25
2019-04-30T09:58:17.228Z,8.13
2019-04-30T10:00:40.949Z,7.00
2019-04-30T10:03:11.261Z,8.43
2019-04-30T10:05:41.040Z,9.10
2019-04-30T10:08:10.290Z,8.45
2019-04-30T10:10:41.104Z,8.60
2019-04-30T10:13:10.387Z,8.65
2019-04-30T10:15:43.969Z,7.83
2019-04-30T10:18:13.418Z,6.37
2019-04-30T10:20:43.953Z,8.50
2019-04-30T10:23:13.123Z,9.10
2019-04-30T10:25:42.369Z,8.38
2019-04-30T10:28:11.585Z,7.90
2019-04-30T10:30:40.884Z,7.58
2019-04-30T10:33:10.200Z,6.78
2019-04-30T10:35:39.387Z,8.23
2019-04-30T10:38:09.845Z,7.50
2019-04-30T10:40:39.298Z,7.78
2019-04-30T10:43:09.102Z,6.47
2019-04-30T10:45:38.950Z,8.80
2019-04-30T10:48:08.288Z,8.13
2019-04-30T10:50:40.741Z,8.43
2019-04-30T10:53:09.182Z,7.08
2019-04-30T10:55:38.903Z,9.53
2019-04-30T10:58:08.103Z,8.15
2019-04-30T11:00:40.139Z,9.58
2019-04-30T11:03:19.127Z,9.55
2019-04-30T11:05:41.307Z,9.25
2019-04-30T11:08:10.823Z,8.55
2019-04-30T11:10:40.096Z,9.98
2019-04-30T11:13:09.289Z,9.18
2019-04-30T11:15:39.440Z,9.15
2019-04-30T11:18:09.030Z,9.00
2019-04-30T11:20:39.713Z,9.13
2019-04-30T11:23:14.751Z,10.18
2019-04-30T11:25:41.563Z,9.68
2019-04-30T11:28:11.899Z,8.23
2019-04-30T11:30:41.878Z,10.28
2019-04-30T11:33:11.528Z,10.45
2019-04-30T11:35:41.023Z,8.80
2019-04-30T11:38:10.212Z,10.10
2019-04-30T11:40:40.056Z,8.40
2019-04-30T11:43:09.593Z,6.12
2019-04-30T11:45:54.251Z,8.70
2019-04-30T11:48:23.525Z,5.17
2019-04-30T11:50:52.774Z,7.22
2019-04-30T11:53:27.619Z,8.05
2019-04-30T11:55:53.026Z,9.18
2019-04-30T11:58:22.269Z,8.58
2019-04-30T12:00:51.544Z,8.20
2019-04-30T12:03:20.860Z,9.50
2019-04-30T12:05:50.037Z,10.20
2019-04-30T12:08:20.847Z,8.28
2019-04-30T12:10:54.274Z,9.20
2019-04-30T12:13:24.647Z,8.73
2019-04-30T12:15:54.355Z,10.78
2019-04-30T12:18:23.556Z,7.95
2019-04-30T12:20:52.854Z,10.58
2019-04-30T12:23:22.143Z,9.03
2019-04-30T12:25:51.319Z,9.10
2019-04-30T12:28:20.517Z,9.70
2019-04-30T12:30:49.756Z,8.40
2019-04-30T12:33:19.269Z,8.63
2019-04-30T12:35:49.170Z,9.33
2019-04-30T12:38:19.775Z,9.48
2019-04-30T12:40:49.043Z,8.00
2019-04-30T12:43:18.209Z,8.35
2019-04-30T12:45:56.557Z,7.97
2019-04-30T12:48:20.364Z,6.12
2019-04-30T12:50:53.972Z,8.20
2019-04-30T12:53:24.787Z,8.55
2019-04-30T12:56:12.043Z,8.08
2019-04-30T12:58:41.328Z,8.60
2019-04-30T13:01:10.650Z,8.68
2019-04-30T13:03:40.032Z,8.55
2019-04-30T13:06:11.730Z,9.38
2019-04-30T13:08:41.668Z,8.33
2019-04-30T13:11:12.969Z,6.42
2019-04-30T13:13:43.037Z,10.00
2019-04-30T13:16:12.594Z,8.23
2019-04-30T13:18:41.782Z,9.20
2019-04-30T13:21:11.029Z,9.08
2019-04-30T13:23:40.246Z,7.92
2019-04-30T13:26:09.415Z,8.78
2019-04-30T13:28:45.903Z,9.68
2019-04-30T13:31:15.148Z,6.83
2019-04-30T13:33:46.783Z,11.03
2019-04-30T13:36:19.720Z,11.78
2019-04-30T13:38:56.354Z,9.98
2019-04-30T13:41:32.768Z,11.65
2019-04-30T13:44:02.808Z,9.45
2019-04-30T13:46:32.038Z,9.40
2019-04-30T13:49:01.262Z,9.20
2019-04-30T13:51:30.504Z,9.08
2019-04-30T13:53:59.703Z,9.23
2019-04-30T13:56:29.039Z,9.45
2019-04-30T13:58:58.281Z,9.43
2019-04-30T14:01:29.410Z,8.70
2019-04-30T14:04:15.303Z,11.00
2019-04-30T14:06:48.971Z,9.88
2019-04-30T14:09:22.382Z,5.65
2019-04-30T14:11:51.633Z,10.93
2019-04-30T14:14:20.956Z,8.98
2019-04-30T14:16:50.336Z,9.25
2019-04-30T14:19:19.659Z,10.93
2019-04-30T14:21:49.400Z,8.65
2019-04-30T14:24:19.341Z,9.73
2019-04-30T14:26:49.143Z,10.70
2019-04-30T14:29:18.418Z,9.30
2019-04-30T14:31:48.779Z,9.53
2019-04-30T14:34:18.648Z,9.10
2019-04-30T14:36:49.276Z,10.50
2019-04-30T14:39:20.338Z,10.30
2019-04-30T14:41:52.069Z,11.33
2019-04-30T14:44:23.000Z,9.53
2019-04-30T14:47:00.613Z,10.38
2019-04-30T14:49:41.410Z,10.10
2019-04-30T14:52:10.817Z,9.80
2019-04-30T14:54:58.797Z,9.70
2019-04-30T14:57:42.262Z,9.73
2019-04-30T15:00:19.231Z,9.88
2019-04-30T15:02:56.213Z,7.90
2019-04-30T15:05:25.391Z,9.10
2019-04-30T15:07:54.624Z,10.40
2019-04-30T15:10:23.862Z,8.10
2019-04-30T15:12:53.116Z,10.58
2019-04-30T15:15:22.395Z,8.18
2019-04-30T15:17:51.726Z,10.00
2019-04-30T15:20:20.930Z,10.55
2019-04-30T15:22:54.491Z,9.83
2019-04-30T15:25:23.849Z,10.93
2019-04-30T15:27:53.146Z,9.35
2019-04-30T15:30:22.613Z,9.48
2019-04-30T15:32:54.847Z,9.95
2019-04-30T15:37:54.587Z,10.60
2019-04-30T15:40:24.004Z,12.58
2019-04-30T15:42:55.258Z,7.78
2019-04-30T15:45:24.588Z,12.00
2019-04-30T15:47:53.990Z,9.68
2019-04-30T15:50:23.482Z,7.15
2019-04-30T15:52:52.925Z,9.95
2019-04-30T15:55:23.593Z,9.25
2019-04-30T15:58:10.675Z,10.20
2019-04-30T16:00:40.196Z,9.78
2019-04-30T16:03:12.113Z,11.35
2019-04-30T16:05:44.615Z,10.75
2019-04-30T16:08:24.395Z,11.00
2019-04-30T16:11:01.254Z,10.60
2019-04-30T16:13:34.829Z,10.50
2019-04-30T16:16:04.171Z,9.50
2019-04-30T16:18:50.534Z,10.82
2019-04-30T16:21:20.051Z,11.60
2019-04-30T16:23:49.456Z,11.18
2019-04-30T16:26:18.896Z,11.65
2019-04-30T16:28:49.519Z,10.53
2019-04-30T16:31:20.565Z,10.10
2019-04-30T16:33:51.111Z,12.30
2019-04-30T16:36:20.617Z,21.90
2019-04-30T16:38:50.019Z,29.32
2019-04-30T16:41:31.057Z,21.42
2019-04-30T16:43:50.475Z,16.12
2019-04-30T16:46:19.774Z,14.23
2019-04-30T16:48:49.421Z,13.13
2019-04-30T16:51:18.911Z,12.55
2019-04-30T16:53:48.729Z,14.18
2019-04-30T16:56:18.646Z,11.78
2019-04-30T16:59:01.620Z,12.90
2019-04-30T17:01:35.936Z,15.32
2019-04-30T17:04:09.022Z,13.88
2019-04-30T17:06:49.301Z,15.70
2019-04-30T17:09:32.597Z,15.23
2019-04-30T17:12:08.495Z,16.20
2019-04-30T17:14:39.263Z,17.42
2019-04-30T17:17:08.528Z,18.62
2019-04-30T17:19:39.331Z,18.35
2019-04-30T17:22:08.772Z,19.48
2019-04-30T17:24:39.344Z,19.55
2019-04-30T17:27:18.813Z,20.43
2019-04-30T17:29:39.938Z,18.90
2019-04-30T17:32:10.633Z,19.25
2019-04-30T17:34:40.145Z,18.82
2019-04-30T17:37:09.461Z,18.73
2019-04-30T17:39:41.017Z,18.45
2019-04-30T17:42:09.884Z,18.70
2019-04-30T17:44:39.758Z,17.98
2019-04-30T17:47:09.285Z,17.40
2019-04-30T17:49:38.459Z,17.55
2019-04-30T17:52:08.817Z,16.57
2019-04-30T17:54:38.427Z,16.67
2019-04-30T17:57:10.426Z,15.83
2019-04-30T17:59:38.741Z,16.30
2019-04-30T18:02:09.650Z,16.65
2019-04-30T18:04:38.984Z,16.45
2019-04-30T18:07:09.903Z,16.87
2019-04-30T18:09:39.300Z,17.65
2019-04-30T18:12:09.379Z,21.07
2019-04-30T18:14:39.611Z,40.50
2019-04-30T18:17:09.367Z,108.05
2019-04-30T18:19:43.438Z,149.35
2019-04-30T18:22:16.857Z,106.03
2019-04-30T18:24:49.291Z,83.35
2019-04-30T18:27:26.365Z,68.62
2019-04-30T18:29:55.998Z,70.62
2019-04-30T18:32:29.477Z,62.93
2019-04-30T18:34:59.138Z,44.13
2019-04-30T18:37:28.768Z,45.15
2019-04-30T18:39:59.989Z,39.23
2019-04-30T18:42:29.283Z,45.73
2019-04-30T18:44:58.597Z,43.50
2019-04-30T18:47:28.174Z,54.00
2019-04-30T18:49:59.414Z,37.98
2019-04-30T18:52:29.043Z,37.78
2019-04-30T18:54:59.495Z,43.38
2019-04-30T18:57:28.947Z,32.98
2019-04-30T18:59:59.137Z,42.20
2019-04-30T19:02:29.547Z,36.45
2019-04-30T19:04:59.524Z,34.92
2019-04-30T19:07:36.772Z,34.80
2019-04-30T19:10:17.713Z,29.45
2019-04-30T19:12:51.550Z,25.48
2019-04-30T19:16:11.390Z,23.30
2019-04-30T19:18:11.611Z,25.72
2019-04-30T19:20:51.489Z,44.67
2019-04-30T19:23:20.918Z,42.88
2019-04-30T19:25:50.313Z,40.70
2019-04-30T19:28:19.511Z,44.88
2019-04-30T19:30:55.838Z,37.85
2019-04-30T19:33:19.826Z,29.87
2019-04-30T19:35:50.621Z,30.97
2019-04-30T19:38:20.035Z,38.20
2019-04-30T19:40:49.509Z,41.30
2019-04-30T19:43:18.931Z,39.13
2019-04-30T19:45:49.022Z,39.38
2019-04-30T19:48:19.308Z,33.08
2019-04-30T19:50:48.973Z,29.35
2019-04-30T19:53:21.987Z,28.75
2019-04-30T19:55:49.500Z,36.10
2019-04-30T19:58:26.163Z,26.12
2019-04-30T20:00:50.003Z,27.17
2019-04-30T20:03:19.809Z,24.37
2019-04-30T20:05:49.241Z,22.15
2019-04-30T20:08:19.868Z,20.05
2019-04-30T20:10:49.672Z,65.08
2019-04-30T20:13:31.317Z,38.55
2019-04-30T20:15:50.212Z,31.97
2019-04-30T20:18:20.439Z,27.32
2019-04-30T20:20:52.020Z,27.42
2019-04-30T20:23:21.505Z,28.42
2019-04-30T20:25:50.937Z,27.60
2019-04-30T20:28:20.288Z,25.02
2019-04-30T20:30:49.846Z,25.25
2019-04-30T20:33:19.213Z,24.10
2019-04-30T20:35:48.927Z,20.60
2019-04-30T20:38:29.240Z,19.40
2019-04-30T20:41:02.811Z,19.55
2019-04-30T20:43:31.261Z,30.23
2019-04-30T20:46:01.080Z,38.83
2019-04-30T20:48:30.542Z,31.82
2019-04-30T20:51:01.381Z,24.12
2019-04-30T20:53:30.920Z,19.40
2019-04-30T20:56:00.396Z,18.67
2019-04-30T20:58:29.704Z,19.35
2019-04-30T21:01:04.133Z,17.48
2019-04-30T21:03:30.103Z,16.87
2019-04-30T21:06:00.662Z,61.35
2019-04-30T21:08:29.980Z,62.38
2019-04-30T21:10:59.436Z,39.58
2019-04-30T21:13:29.527Z,37.90
2019-04-30T21:15:59.472Z,23.60
2019-04-30T21:18:32.140Z,21.95
2019-04-30T21:21:00.182Z,23.25
2019-04-30T21:23:29.525Z,22.98
2019-04-30T21:25:59.124Z,23.57
2019-04-30T21:28:29.696Z,34.55
2019-04-30T21:31:00.782Z,58.65
2019-04-30T21:33:43.739Z,35.55
2019-04-30T21:36:14.716Z,30.55
2019-04-30T21:38:43.966Z,27.15
2019-04-30T21:41:13.287Z,26.42
2019-04-30T21:43:42.608Z,29.80
2019-04-30T21:46:12.051Z,26.40
2019-04-30T21:48:41.309Z,27.15
2019-04-30T21:51:10.732Z,21.87
2019-04-30T21:53:40.058Z,21.37
